AirNav   Bose ProFlight Series 2 Headset
 
 610 users online  

24II Good Samaritan Hospital Heliport
Vincennes, Indiana, USA

GOING TO VINCENNES?


FAA INFORMATION EFFECTIVE 02 JANUARY 2020

Location

FAA Identifier: 24II
Lat/Long: 38-40-23.8900N 087-32-04.3700W
38-40.398167N 087-32.072833W
38.6733028,-87.5345472
(estimated)
Elevation: 420 ft. / 128 m (estimated)
Variation: 01W (1990)
Time zone: UTC -5 (UTC -4 during Daylight Saving Time)
Zip code: 47591

Heliport Operations

Heliport use: Private use, MEDICAL USE.
Activation date: 09/1991
Control tower: no
ARTCC: INDIANAPOLIS CENTER
FSS: TERRE HAUTE FLIGHT SERVICE STATION
Attendance: UNATNDD
Segmented circle: no

Heliport Communications

WX ASOS at LWV (6 nm NW): 118.0 (618-943-5252)
WX AWOS-3 at AJG (10 nm SW): 134.900 (618-948-2184)
WX AWOS-3PT at DCY (19 nm E): 124.1 (812-257-8889)

Nearby radio navigation aids

VOR radial/distance  VOR name  Freq  Var
SAMr063/28.2SAMSVILLE VOR/DME116.6003E

 
NDB name  Hdg/Dist  Freq  Var  ID
PALESTINE169/21.139103WPLX .--. .-.. -..-
SULLIVAN191/26.732602WSIV ... .. ...-
OLNEY098/30.027203WOLY --- .-.. -.--

Heliport Services

Runway Information

Helipad H1

Dimensions: 50 x 50 ft. / 15 x 15 m
Surface: asphalt
Latitude: 38-40.398167N
Longitude: 087-32.072833W
Elevation: 420.0 ft.
Traffic pattern: leftleft

Heliport Ownership and Management from official FAA records

Ownership: Privately-owned
Owner: GOOD SAMARITAN HOSPITAL
520 S. 7TH STREET
VINCENNES, IN 47591
Phone 812-882-5220
Manager: ROBERT D. MC LIN
520 S. 7TH STREET
VINCENNES, IN 47591
Phone 812-885-3333
ADDITIONAL CONTACT: DON PAGE 812-885-3805 DPAGE@GSHVIN.ORG

Additional Remarks

A52-H1 RY H1 100 FT TOWERS 275 FT E HELI PAD.
FOR CD CTC EVANSVILLE APCH AT 812-436-4690, WHEN APCH CLSD CTC INDIANAPOLIS ARTCC AT 317-247-2411.

Instrument Procedures

There are no published instrument procedures at 24II.

Some nearby airports with instrument procedures:

KLWV - Lawrenceville-Vincennes International Airport (6 nm NW)
KAJG - Mount Carmel Municipal Airport (10 nm SW)
KDCY - Daviess County Airport (19 nm E)
KRSV - Crawford County Airport (21 nm N)
KSIV - Sullivan County Airport (27 nm N)
 
Loc | Ops | Rwys | IFR | FBO | Links
Com | Nav | Svcs | Stats | Notes
Area around 24II (Good Samaritan Hospital Heliport)
 
Road maps at: MapQuest Bing Google
 
Aerial photo
No photo
 
Sectional chart

 
Airport distance calculator
Flying to Good Samaritan Hospital Heliport? Find the distance to fly.

From to 24II

Sunrise and sunset
Times for 24-Jan-2020
 Local
(UTC-5)
 Zulu
(UTC)
Morning civil twilight07:3512:35
Sunrise08:0313:03
Sunset18:0123:01
Evening civil twilight18:3023:30

Current date and time
Zulu (UTC)  24-Jan-2020 08:24:14
Local (UTC-5)  24-Jan-2020 03:24:14
 
METAR
KLWV 
6nm NW 
240753Z AUTO 16008KT 5SM BR FEW009 BKN014 OVC019 05/04 A2986 RMK AO2 SLP113 T00500044
KAJG 
10nm SW 
240755Z AUTO 16006KT 7SM OVC009 05/04 A2985 RMK AO2 T00490042
KDCY 
19nm E 
240755Z AUTO 15004KT 1 1/2SM -DZ OVC005 04/04 A2987 RMK AO2 T00400037
TAF
KHNB 
37nm SE 
240522Z 2406/2506 13011KT 6SM -RA BR OVC007 FM240900 13009KT 5SM BR VCSH SCT003 OVC007 TEMPO 2409/2413 2SM SHRA BR OVC003 FM241300 16007KT 2SM RA BR OVC003 FM241800 23009KT 6SM -RA BKN007 OVC013 FM242100 22009KT 4SM -RA BR SCT007 OVC012 FM250000 24007KT 4SM -RA BR OVC007
KEVV 
37nm S 
240528Z 2406/2506 15005KT 3SM -DZ BR OVC004 FM241600 22007KT 4SM -SHRA OVC007 FM250000 23007KT 6SM BR VCSH OVC009
NOTAMs
Click for the latest NOTAMs
NOTAMs are issued by the DoD/FAA and will open in a separate window not controlled by AirNav.

 

 
 

Would you like to see your business listed on this page?

 If your business provides an interesting product or service to pilots, flight crews, aircraft, or users of the Good Samaritan Hospital Heliport, you should consider listing it here.  To start the listing process, click on the button below
 
Add a business
 

Other Pages about Good Samaritan Hospital Heliport

Update a link
 
Copyright © AirNav, LLC. All rights reserved. Privacy Policy  Contact